Time;durP1;ratioP1;P1;durP2;ratioP2;P2;SDS_P1;SDS_P2;PMS_P1;PMS_P2;Temp;Humidity;BMP_temperature;BMP_pressure;BME280_temperature;BME280_humidity;BME280_pressure;Samples;Min_cycle;Max_cycle;Signal;HPM_P1;HPM_P2
2023/07/22 00:00:26;;;;;;;0.10;0.10;;;13.50;99.90;;;;;;4974362;28;20593;-82
2023/07/22 00:02:52;;;;;;;0.10;0.10;;;13.40;99.90;;;;;;4993005;28;20264;-82
2023/07/22 00:05:23;;;;;;;0.10;0.10;;;13.40;99.90;;;;;;4989514;28;20212;-83
2023/07/22 00:07:52;;;;;;;0.10;0.10;;;13.40;99.90;;;;;;4992769;28;20501;-83
2023/07/22 00:10:18;;;;;;;0.10;0.10;;;13.40;99.90;;;;;;4989343;28;21001;-83
2023/07/22 00:12:43;;;;;;;0.10;0.10;;;13.40;99.90;;;;;;4973441;28;20590;-83
2023/07/22 00:15:11;;;;;;;0.10;0.10;;;13.40;99.90;;;;;;4990267;28;20196;-82
2023/07/22 00:17:38;;;;;;;0.10;0.10;;;13.40;99.90;;;;;;4990951;28;20193;-83
2023/07/22 00:20:04;;;;;;;0.10;0.10;;;13.40;99.90;;;;;;4989147;28;20495;-83
2023/07/22 00:22:30;;;;;;;0.10;0.10;;;13.40;99.90;;;;;;4972775;28;20459;-82
2023/07/22 00:24:55;;;;;;;0.10;0.10;;;13.40;99.90;;;;;;4992665;28;20472;-82
2023/07/22 00:27:21;;;;;;;0.10;0.10;;;13.50;99.90;;;;;;4990583;28;20708;-83
2023/07/22 00:29:46;;;;;;;0.10;0.10;;;13.50;99.90;;;;;;4963160;28;20190;-83
2023/07/22 00:32:13;;;;;;;0.10;0.10;;;13.40;99.90;;;;;;4986159;28;20268;-83
2023/07/22 00:34:38;;;;;;;0.10;0.10;;;13.50;99.90;;;;;;4992307;28;20177;-83
2023/07/22 00:37:04;;;;;;;0.10;0.10;;;13.40;99.90;;;;;;4991986;28;20441;-83
2023/07/22 00:39:29;;;;;;;0.10;0.10;;;13.30;99.90;;;;;;4971367;28;20193;-82
2023/07/22 00:41:55;;;;;;;0.10;0.10;;;13.40;99.90;;;;;;4987497;28;20186;-83
2023/07/22 00:44:20;;;;;;;0.10;0.10;;;13.40;99.90;;;;;;4992502;28;20221;-84
2023/07/22 00:46:46;;;;;;;0.10;0.10;;;13.40;99.90;;;;;;4992069;28;20199;-83
2023/07/22 00:49:14;;;;;;;0.10;0.10;;;13.40;99.90;;;;;;4993068;28;20665;-82
2023/07/22 00:51:40;;;;;;;0.10;0.10;;;13.40;99.90;;;;;;4985451;28;20190;-83
2023/07/22 00:54:05;;;;;;;0.10;0.10;;;13.40;99.90;;;;;;4984489;28;20467;-82
2023/07/22 00:56:35;;;;;;;0.10;0.10;;;13.40;99.90;;;;;;4973480;28;20197;-82
2023/07/22 00:59:01;;;;;;;0.10;0.10;;;13.40;99.90;;;;;;4974647;28;20297;-83
2023/07/22 01:01:27;;;;;;;0.17;0.17;;;13.40;99.90;;;;;;4990498;28;20550;-83
2023/07/22 01:03:52;;;;;;;0.10;0.10;;;13.30;99.90;;;;;;4989136;28;20824;-82
2023/07/22 01:06:20;;;;;;;0.10;0.10;;;13.30;99.90;;;;;;4991803;28;20209;-83
2023/07/22 01:08:46;;;;;;;0.10;0.10;;;13.30;99.90;;;;;;4986722;28;20200;-83
2023/07/22 01:11:12;;;;;;;0.20;0.20;;;13.40;99.90;;;;;;4989433;28;20452;-83
2023/07/22 01:13:38;;;;;;;0.10;0.10;;;13.40;99.90;;;;;;4972340;28;20437;-83
2023/07/22 01:16:05;;;;;;;0.10;0.10;;;13.30;99.90;;;;;;4991738;28;20450;-82
2023/07/22 01:18:32;;;;;;;0.10;0.10;;;13.20;99.90;;;;;;4971031;28;20444;-83
2023/07/22 01:20:58;;;;;;;0.10;0.10;;;13.20;99.90;;;;;;4974436;28;20424;-83
2023/07/22 01:23:23;;;;;;;0.10;0.10;;;13.30;99.90;;;;;;4990495;28;20458;-83
2023/07/22 01:25:50;;;;;;;0.10;0.10;;;13.30;99.90;;;;;;4985138;28;20251;-82
2023/07/22 01:28:15;;;;;;;0.10;0.10;;;13.30;99.90;;;;;;4963765;28;20190;-84
2023/07/22 01:30:40;;;;;;;0.10;0.10;;;13.20;99.90;;;;;;4989279;28;20507;-82
2023/07/22 01:33:06;;;;;;;0.10;0.10;;;13.20;99.90;;;;;;4988179;28;20189;-83
2023/07/22 01:35:31;;;;;;;0.10;0.10;;;13.20;99.90;;;;;;4992251;28;20181;-82
2023/07/22 01:37:57;;;;;;;0.10;0.10;;;13.20;99.90;;;;;;4991109;28;20197;-83
2023/07/22 01:40:24;;;;;;;0.10;0.10;;;13.10;99.90;;;;;;4991032;28;20193;-82
2023/07/22 01:42:50;;;;;;;0.10;0.10;;;13.10;99.90;;;;;;4970076;28;20684;-84
2023/07/22 01:45:15;;;;;;;0.10;0.10;;;13.10;99.90;;;;;;4989038;28;20511;-83
2023/07/22 01:47:41;;;;;;;0.13;0.13;;;13.10;99.90;;;;;;4987886;28;20184;-82
2023/07/22 01:50:07;;;;;;;0.10;0.10;;;13.10;99.90;;;;;;4990704;28;20185;-83
2023/07/22 01:52:33;;;;;;;0.10;0.10;;;13.10;99.90;;;;;;4971890;28;20657;-83
2023/07/22 01:54:58;;;;;;;0.10;0.10;;;13.10;99.90;;;;;;4986290;28;20518;-83
2023/07/22 01:57:24;;;;;;;0.10;0.10;;;13.00;99.90;;;;;;4985380;28;20189;-82
2023/07/22 01:59:49;;;;;;;0.10;0.10;;;13.00;99.90;;;;;;4991183;28;20173;-83
2023/07/22 02:02:15;;;;;;;0.10;0.10;;;13.10;99.90;;;;;;4990647;28;20633;-84
2023/07/22 02:04:40;;;;;;;0.10;0.10;;;13.10;99.90;;;;;;4986476;28;20212;-83
2023/07/22 02:07:06;;;;;;;0.10;0.10;;;13.10;99.90;;;;;;4990983;28;20197;-83
2023/07/22 02:09:32;;;;;;;0.20;0.20;;;13.10;99.90;;;;;;4974170;28;20593;-83
2023/07/22 02:11:58;;;;;;;0.10;0.10;;;13.10;99.90;;;;;;4983999;28;20180;-83
2023/07/22 02:14:24;;;;;;;0.10;0.10;;;13.10;99.90;;;;;;4971354;28;20447;-82
2023/07/22 02:16:49;;;;;;;0.10;0.10;;;13.00;99.90;;;;;;4988207;28;20195;-82
2023/07/22 02:19:16;;;;;;;0.10;0.10;;;13.10;99.90;;;;;;4988364;28;20642;-83
2023/07/22 02:21:41;;;;;;;0.10;0.10;;;13.00;99.90;;;;;;4989195;28;20272;-83
2023/07/22 02:24:07;;;;;;;0.10;0.10;;;13.00;99.90;;;;;;4990635;28;20889;-82
2023/07/22 02:26:33;;;;;;;0.10;0.10;;;13.00;99.90;;;;;;4969990;28;20224;-83
2023/07/22 02:28:59;;;;;;;0.10;0.10;;;13.00;99.90;;;;;;4969689;28;20444;-82
2023/07/22 02:31:25;;;;;;;0.10;0.10;;;13.00;99.90;;;;;;4969545;28;20195;-83
2023/07/22 02:33:50;;;;;;;0.10;0.10;;;13.00;99.90;;;;;;4971456;28;20181;-83
2023/07/22 02:36:16;;;;;;;0.10;0.10;;;12.90;99.90;;;;;;4988307;28;20506;-83
2023/07/22 02:38:41;;;;;;;0.10;0.10;;;12.90;99.90;;;;;;4970296;28;20185;-83
2023/07/22 02:41:07;;;;;;;0.20;0.20;;;12.90;99.90;;;;;;4986667;28;20204;-83
2023/07/22 02:43:34;;;;;;;0.10;0.10;;;13.00;99.90;;;;;;4988190;28;20587;-82
2023/07/22 02:46:02;;;;;;;0.10;0.10;;;13.00;99.90;;;;;;4988600;28;20546;-84
2023/07/22 02:48:28;;;;;;;0.10;0.10;;;13.00;99.90;;;;;;4984810;28;20422;-83
2023/07/22 02:50:55;;;;;;;0.10;0.10;;;12.90;99.90;;;;;;4987329;28;20452;-82
2023/07/22 02:53:20;;;;;;;0.10;0.10;;;12.90;99.90;;;;;;4971255;28;20528;-83
2023/07/22 02:55:46;;;;;;;0.10;0.10;;;13.00;99.90;;;;;;4988697;28;20472;-83
2023/07/22 02:58:12;;;;;;;0.10;0.10;;;13.00;99.90;;;;;;4963936;28;20260;-83
2023/07/22 03:00:37;;;;;;;0.10;0.10;;;13.00;99.90;;;;;;4983434;28;20193;-83
2023/07/22 03:03:04;;;;;;;0.10;0.10;;;13.00;99.90;;;;;;4988208;28;20186;-83
2023/07/22 03:05:31;;;;;;;0.10;0.10;;;13.00;99.90;;;;;;4989587;28;20224;-82
2023/07/22 03:07:58;;;;;;;0.10;0.10;;;13.10;99.90;;;;;;4990362;28;20519;-84
2023/07/22 03:10:25;;;;;;;0.10;0.10;;;13.10;99.90;;;;;;4983111;28;20540;-83
2023/07/22 03:12:54;;;;;;;0.13;0.13;;;13.00;99.90;;;;;;4984498;28;20448;-83
2023/07/22 03:15:21;;;;;;;0.10;0.10;;;13.00;99.90;;;;;;4969466;28;20980;-84
2023/07/22 03:17:46;;;;;;;0.10;0.10;;;13.00;99.90;;;;;;4971108;28;20433;-83
2023/07/22 03:20:14;;;;;;;0.20;0.20;;;12.90;99.90;;;;;;4969637;28;20432;-84
2023/07/22 03:22:41;;;;;;;0.10;0.10;;;12.90;99.90;;;;;;4985789;28;20645;-83
2023/07/22 03:25:09;;;;;;;0.10;0.10;;;12.90;99.90;;;;;;4988631;28;20565;-83
2023/07/22 03:27:35;;;;;;;0.10;0.10;;;12.90;99.90;;;;;;4987563;28;20451;-84
2023/07/22 03:30:01;;;;;;;0.10;0.10;;;12.80;99.90;;;;;;4972206;28;20437;-83
2023/07/22 03:32:27;;;;;;;0.10;0.10;;;12.80;99.90;;;;;;4971670;28;20193;-85
2023/07/22 03:34:52;;;;;;;0.10;0.10;;;12.70;99.90;;;;;;4972735;28;20424;-84
2023/07/22 03:37:20;;;;;;;0.10;0.10;;;12.60;99.90;;;;;;4985439;28;20186;-84
2023/07/22 03:39:45;;;;;;;0.10;0.10;;;12.70;99.90;;;;;;4977738;28;20188;-85
2023/07/22 03:42:11;;;;;;;0.10;0.10;;;12.70;99.90;;;;;;4967586;28;20452;-85
2023/07/22 03:44:36;;;;;;;0.10;0.10;;;12.70;99.90;;;;;;4987350;28;20245;-85
2023/07/22 03:47:02;;;;;;;0.10;0.10;;;12.60;99.90;;;;;;4980036;28;20700;-84
2023/07/22 03:49:28;;;;;;;0.20;0.20;;;12.70;99.90;;;;;;4988247;28;20212;-86
2023/07/22 03:51:53;;;;;;;0.20;0.20;;;12.60;99.90;;;;;;4989141;28;20272;-85
2023/07/22 03:54:18;;;;;;;0.10;0.10;;;12.60;99.90;;;;;;4988950;28;20676;-85
2023/07/22 03:56:44;;;;;;;0.20;0.20;;;12.60;99.90;;;;;;4987865;28;20189;-85
2023/07/22 03:59:09;;;;;;;0.10;0.10;;;12.70;99.90;;;;;;4971129;28;20607;-85
2023/07/22 04:01:35;;;;;;;0.10;0.10;;;12.70;99.90;;;;;;4957883;28;20213;-85
2023/07/22 04:04:00;;;;;;;0.10;0.10;;;12.60;99.90;;;;;;4987904;28;20204;-86
2023/07/22 04:06:26;;;;;;;0.10;0.10;;;12.60;99.90;;;;;;4975234;28;20644;-85
2023/07/22 04:08:52;;;;;;;0.20;0.20;;;12.60;99.90;;;;;;4989170;28;20310;-85
2023/07/22 04:11:17;;;;;;;0.10;0.10;;;12.70;99.90;;;;;;4987247;28;20220;-85
2023/07/22 04:13:42;;;;;;;0.10;0.10;;;12.60;99.90;;;;;;4986661;28;20209;-85
2023/07/22 04:16:08;;;;;;;0.10;0.10;;;12.60;99.90;;;;;;4971072;28;20312;-83
2023/07/22 04:18:34;;;;;;;0.10;0.10;;;12.60;99.90;;;;;;4990862;28;20197;-85
2023/07/22 04:21:00;;;;;;;0.10;0.10;;;12.60;99.90;;;;;;4993194;28;20181;-85
2023/07/22 04:23:26;;;;;;;0.10;0.10;;;12.70;99.90;;;;;;4970057;28;20189;-84
2023/07/22 04:25:51;;;;;;;0.10;0.10;;;12.70;99.90;;;;;;4992523;28;20471;-85
2023/07/22 04:28:17;;;;;;;0.10;0.10;;;12.80;99.90;;;;;;4986155;28;21840;-85
2023/07/22 04:30:43;;;;;;;0.20;0.20;;;12.70;99.90;;;;;;4989646;28;20444;-84
2023/07/22 04:33:11;;;;;;;0.10;0.10;;;12.70;99.90;;;;;;4990706;28;20193;-85
2023/07/22 04:35:38;;;;;;;0.10;0.10;;;12.90;99.90;;;;;;4993366;28;20208;-84
2023/07/22 04:38:04;;;;;;;0.10;0.10;;;12.80;99.90;;;;;;4987837;28;20498;-84
2023/07/22 04:40:30;;;;;;;0.10;0.10;;;12.90;99.90;;;;;;4992873;28;20428;-85
2023/07/22 04:42:56;;;;;;;0.10;0.10;;;12.80;99.90;;;;;;4991766;28;20189;-84
2023/07/22 04:45:23;;;;;;;0.10;0.10;;;12.80;99.90;;;;;;4991956;28;20490;-85
2023/07/22 04:47:50;;;;;;;0.10;0.10;;;12.80;99.90;;;;;;4982765;28;21188;-84
2023/07/22 04:50:16;;;;;;;0.10;0.10;;;12.80;99.90;;;;;;4973861;28;21247;-85
2023/07/22 04:52:44;;;;;;;0.10;0.10;;;12.80;99.90;;;;;;4970807;28;20432;-86
2023/07/22 04:55:10;;;;;;;0.10;0.10;;;12.80;99.90;;;;;;4987781;28;20526;-86
2023/07/22 04:57:36;;;;;;;0.10;0.10;;;12.80;99.90;;;;;;4966522;28;20944;-85
2023/07/22 05:00:05;;;;;;;0.10;0.10;;;12.80;99.90;;;;;;4981707;28;20185;-85
2023/07/22 05:02:32;;;;;;;0.10;0.10;;;12.80;99.90;;;;;;4960517;28;20312;-84
2023/07/22 05:04:58;;;;;;;0.20;0.20;;;12.90;99.90;;;;;;4965084;28;20469;-85
2023/07/22 05:07:23;;;;;;;0.20;0.20;;;12.90;99.90;;;;;;4969873;28;20487;-85
2023/07/22 05:09:49;;;;;;;0.10;0.10;;;13.00;99.90;;;;;;4988197;28;20185;-85
2023/07/22 05:12:15;;;;;;;0.10;0.10;;;13.00;99.90;;;;;;4984179;28;20203;-85
2023/07/22 05:14:40;;;;;;;0.10;0.10;;;13.00;99.90;;;;;;4987756;28;20526;-85
2023/07/22 05:17:06;;;;;;;0.20;0.20;;;13.00;99.90;;;;;;4986751;28;20201;-84
2023/07/22 05:19:32;;;;;;;0.10;0.10;;;13.10;99.90;;;;;;4989616;28;20280;-84
2023/07/22 05:21:57;;;;;;;0.10;0.10;;;13.10;99.90;;;;;;4990141;28;20196;-86
2023/07/22 05:24:23;;;;;;;0.10;0.10;;;13.20;99.90;;;;;;4990823;28;20193;-85
2023/07/22 05:26:48;;;;;;;0.10;0.10;;;13.20;99.90;;;;;;4988313;28;20197;-85
2023/07/22 05:29:14;;;;;;;0.10;0.10;;;13.30;99.90;;;;;;4990661;28;20181;-85
2023/07/22 05:31:39;;;;;;;0.10;0.10;;;13.30;99.90;;;;;;4969326;28;20700;-84
2023/07/22 05:34:05;;;;;;;0.10;0.10;;;13.40;99.90;;;;;;4969886;28;20240;-84
2023/07/22 05:36:31;;;;;;;0.10;0.10;;;13.40;99.90;;;;;;4978271;28;20213;-85
2023/07/22 05:38:57;;;;;;;0.10;0.10;;;13.50;99.90;;;;;;4991817;28;20436;-86
2023/07/22 05:41:23;;;;;;;0.10;0.10;;;13.60;99.90;;;;;;4991251;28;20225;-86
2023/07/22 05:43:48;;;;;;;0.10;0.10;;;13.50;99.90;;;;;;4990608;28;20228;-84
2023/07/22 05:46:14;;;;;;;0.10;0.10;;;13.60;99.90;;;;;;4974051;28;20606;-84
2023/07/22 05:48:39;;;;;;;0.10;0.10;;;13.70;99.90;;;;;;4973957;28;20195;-87
2023/07/22 05:51:05;;;;;;;0.10;0.10;;;13.70;99.90;;;;;;4982975;28;20189;-85
2023/07/22 05:53:32;;;;;;;0.10;0.10;;;13.80;99.90;;;;;;4989138;28;20799;-86
2023/07/22 05:55:57;;;;;;;0.10;0.10;;;13.80;99.90;;;;;;4983565;28;20236;-86
2023/07/22 05:58:24;;;;;;;0.10;0.10;;;13.90;99.90;;;;;;4971280;28;20433;-85
2023/07/22 06:00:51;;;;;;;0.10;0.10;;;14.00;99.90;;;;;;4986908;28;20268;-86
2023/07/22 06:03:17;;;;;;;0.10;0.10;;;14.10;99.90;;;;;;4987686;28;20436;-86
2023/07/22 06:05:43;;;;;;;0.10;0.10;;;14.30;99.90;;;;;;4970741;28;20912;-87
2023/07/22 06:08:08;;;;;;;0.10;0.10;;;14.40;99.90;;;;;;4991438;28;20459;-86
2023/07/22 06:10:34;;;;;;;0.20;0.20;;;14.30;99.90;;;;;;4970896;28;20208;-85
2023/07/22 06:13:00;;;;;;;0.10;0.10;;;14.20;99.90;;;;;;4971325;28;20189;-86
2023/07/22 06:15:25;;;;;;;0.10;0.10;;;14.40;99.90;;;;;;4988072;28;20220;-87
2023/07/22 06:17:51;;;;;;;0.10;0.10;;;14.60;99.90;;;;;;4991372;28;20670;-84
2023/07/22 06:20:16;;;;;;;0.10;0.10;;;14.70;99.90;;;;;;4984593;28;20225;-85
2023/07/22 06:22:42;;;;;;;0.10;0.10;;;14.60;99.90;;;;;;4972645;28;20737;-87
2023/07/22 06:25:08;;;;;;;0.10;0.10;;;14.50;99.90;;;;;;4991088;28;20634;-86
2023/07/22 06:27:35;;;;;;;0.10;0.10;;;14.40;99.90;;;;;;4987861;28;20185;-87
2023/07/22 06:30:00;;;;;;;0.10;0.10;;;14.30;99.90;;;;;;4991769;28;20912;-86
2023/07/22 06:32:26;;;;;;;0.10;0.10;;;14.10;99.90;;;;;;4987537;28;20444;-84
2023/07/22 06:34:51;;;;;;;0.10;0.10;;;14.00;99.90;;;;;;4987861;28;20197;-83
2023/07/22 06:37:17;;;;;;;0.10;0.10;;;13.90;99.90;;;;;;4986730;28;20197;-87
2023/07/22 06:39:42;;;;;;;0.10;0.10;;;13.80;99.90;;;;;;4983093;28;20244;-84
2023/07/22 06:42:08;;;;;;;0.10;0.10;;;13.80;99.90;;;;;;4986942;28;20196;-84
2023/07/22 06:44:33;;;;;;;0.10;0.10;;;13.80;99.90;;;;;;4984274;28;20236;-85
2023/07/22 06:46:58;;;;;;;0.10;0.10;;;13.70;99.90;;;;;;4977400;28;20205;-84
2023/07/22 06:49:24;;;;;;;0.10;0.10;;;13.70;99.90;;;;;;4979814;28;20217;-84
2023/07/22 06:51:49;;;;;;;0.10;0.10;;;13.80;99.90;;;;;;4981987;28;20244;-84
2023/07/22 06:54:15;;;;;;;0.10;0.10;;;14.00;99.90;;;;;;4984234;28;20196;-84
2023/07/22 06:56:41;;;;;;;0.10;0.10;;;14.20;99.90;;;;;;4965717;28;20827;-84
2023/07/22 06:59:06;;;;;;;0.10;0.10;;;14.50;99.90;;;;;;4986212;28;20192;-87
2023/07/22 07:01:32;;;;;;;0.10;0.10;;;14.60;99.90;;;;;;4966679;28;20308;-84
2023/07/22 07:03:57;;;;;;;0.10;0.10;;;14.50;99.90;;;;;;4971018;28;20188;-85
2023/07/22 07:06:23;;;;;;;0.10;0.10;;;14.60;99.90;;;;;;4984589;28;20217;-85
2023/07/22 07:08:48;;;;;;;0.10;0.10;;;14.80;99.90;;;;;;4977353;28;20192;-84
2023/07/22 07:11:14;;;;;;;0.10;0.10;;;14.90;99.90;;;;;;4967719;28;20196;-85
2023/07/22 07:13:40;;;;;;;0.10;0.10;;;14.90;99.90;;;;;;4984579;28;20197;-84
2023/07/22 07:16:24;;;;;;;0.10;0.10;;;14.90;99.90;;;;;;4978096;28;20689;-86
2023/07/22 07:18:51;;;;;;;0.10;0.10;;;15.00;99.90;;;;;;4977344;28;20219;-85
2023/07/22 07:21:17;;;;;;;0.10;0.10;;;15.20;99.90;;;;;;4962286;28;20447;-85
2023/07/22 07:23:43;;;;;;;0.10;0.10;;;15.40;99.90;;;;;;4969470;28;20451;-86
2023/07/22 07:26:08;;;;;;;0.10;0.10;;;15.40;99.90;;;;;;4987277;28;20569;-86
2023/07/22 07:28:34;;;;;;;0.10;0.10;;;15.40;99.90;;;;;;4963563;28;21412;-86
2023/07/22 07:30:59;;;;;;;0.10;0.10;;;15.50;99.90;;;;;;4984853;28;20189;-86
2023/07/22 07:33:25;;;;;;;0.10;0.10;;;15.60;99.90;;;;;;4976685;28;20736;-85
2023/07/22 07:35:51;;;;;;;0.10;0.10;;;15.70;99.90;;;;;;4962270;28;20190;-87
2023/07/22 07:38:17;;;;;;;0.10;0.10;;;16.00;99.90;;;;;;4983248;28;20861;-87
2023/07/22 07:40:42;;;;;;;0.10;0.10;;;16.00;99.90;;;;;;4987471;28;20185;-87
2023/07/22 07:43:08;;;;;;;0.10;0.10;;;16.10;99.90;;;;;;4984217;28;20447;-86
2023/07/22 07:45:35;;;;;;;0.10;0.10;;;16.10;99.90;;;;;;4987821;28;20604;-86
2023/07/22 07:48:00;;;;;;;0.10;0.10;;;16.10;99.90;;;;;;4990640;28;20447;-87
2023/07/22 07:50:26;;;;;;;0.10;0.10;;;16.10;99.90;;;;;;4990482;28;20456;-88
2023/07/22 07:52:51;;;;;;;0.10;0.10;;;16.30;99.90;;;;;;4989327;28;20181;-87
2023/07/22 07:55:17;;;;;;;0.10;0.10;;;16.30;99.90;;;;;;4991937;28;20578;-87
2023/07/22 07:57:42;;;;;;;0.10;0.10;;;16.50;99.90;;;;;;4992941;28;20264;-88
2023/07/22 08:00:08;;;;;;;0.10;0.10;;;16.80;99.90;;;;;;4986723;28;20192;-87
2023/07/22 08:02:35;;;;;;;0.10;0.10;;;16.80;99.90;;;;;;4984234;28;20181;-86
2023/07/22 08:05:01;;;;;;;0.10;0.10;;;16.80;99.90;;;;;;4988241;28;20468;-86
2023/07/22 08:07:26;;;;;;;0.10;0.10;;;16.80;99.90;;;;;;4989133;28;20455;-87
2023/07/22 08:09:52;;;;;;;0.10;0.10;;;16.70;99.90;;;;;;4989600;28;20193;-88
2023/07/22 08:12:18;;;;;;;0.10;0.10;;;16.70;99.90;;;;;;4965854;28;20213;-87
2023/07/22 08:14:44;;;;;;;0.10;0.10;;;16.80;99.90;;;;;;4991208;28;20944;-89
2023/07/22 08:17:10;;;;;;;0.10;0.10;;;17.20;99.90;;;;;;4988511;28;20200;-88
2023/07/22 08:19:35;;;;;;;0.10;0.10;;;17.30;99.90;;;;;;4985785;28;20790;-91
2023/07/22 08:22:01;;;;;;;0.10;0.10;;;17.30;99.90;;;;;;4973501;28;20551;-90
2023/07/22 08:24:27;;;;;;;0.10;0.10;;;17.60;99.90;;;;;;4990272;28;20707;-89
2023/07/22 08:26:52;;;;;;;0.10;0.10;;;17.70;99.90;;;;;;4989663;28;20491;-90
2023/07/22 08:29:18;;;;;;;0.10;0.10;;;17.60;99.90;;;;;;4989081;28;20197;-89
2023/07/22 08:31:43;;;;;;;0.10;0.10;;;17.80;99.90;;;;;;4989299;28;20336;-90
2023/07/22 08:34:09;;;;;;;0.10;0.10;;;18.20;99.90;;;;;;4966946;28;20252;-87
2023/07/22 08:36:35;;;;;;;0.10;0.10;;;18.40;99.90;;;;;;4974937;28;20196;-91
2023/07/22 08:39:01;;;;;;;0.10;0.10;;;18.30;99.90;;;;;;4988188;28;20186;-89
2023/07/22 08:41:27;;;;;;;0.10;0.10;;;17.70;99.90;;;;;;4971579;28;20808;-88
2023/07/22 08:43:54;;;;;;;0.10;0.10;;;17.90;99.90;;;;;;4983936;28;20237;-87
2023/07/22 08:46:22;;;;;;;0.10;0.00;;;18.20;99.90;;;;;;4984036;28;20502;-93
2023/07/22 08:48:51;;;;;;;0.10;0.10;;;18.40;99.90;;;;;;4981327;28;20475;-89
2023/07/22 08:51:18;;;;;;;0.10;0.10;;;18.50;99.90;;;;;;4988334;28;20583;-84
2023/07/22 08:53:45;;;;;;;0.10;0.10;;;18.70;99.90;;;;;;4972184;28;20449;-83
2023/07/22 08:56:11;;;;;;;0.10;0.10;;;18.60;99.90;;;;;;4986522;28;20823;-85
2023/07/22 08:58:38;;;;;;;0.10;0.10;;;18.90;99.90;;;;;;4986494;28;20519;-86
2023/07/22 09:01:05;;;;;;;0.10;0.10;;;19.00;99.90;;;;;;4977457;28;20455;-86
2023/07/22 09:03:31;;;;;;;0.10;0.10;;;18.80;99.90;;;;;;4974520;28;20827;-84
2023/07/22 09:05:58;;;;;;;0.10;0.10;;;18.30;99.90;;;;;;4987476;28;20490;-85
2023/07/22 09:08:24;;;;;;;0.10;0.10;;;17.90;99.90;;;;;;4992302;28;20435;-86
2023/07/22 09:10:49;;;;;;;0.10;0.10;;;17.80;99.90;;;;;;4992297;28;20970;-84
2023/07/22 09:13:17;;;;;;;0.10;0.10;;;17.20;99.90;;;;;;4992813;28;20428;-83
2023/07/22 09:15:42;;;;;;;0.10;0.10;;;16.80;99.90;;;;;;4983559;28;20292;-82
2023/07/22 09:18:08;;;;;;;0.10;0.10;;;16.50;99.90;;;;;;4991499;28;20484;-83
2023/07/22 09:20:34;;;;;;;0.10;0.10;;;16.40;99.90;;;;;;4982410;28;20185;-83
2023/07/22 09:23:00;;;;;;;0.10;0.10;;;17.00;99.90;;;;;;4986783;28;20562;-83
2023/07/22 09:25:28;;;;;;;0.10;0.10;;;17.80;99.90;;;;;;4976181;28;20488;-84
2023/07/22 09:27:59;;;;;;;0.10;0.10;;;18.60;99.90;;;;;;4990205;28;20440;-83
2023/07/22 09:30:34;;;;;;;0.10;0.10;;;18.80;99.90;;;;;;4988111;28;20453;-84
2023/07/22 09:33:02;;;;;;;0.10;0.10;;;18.60;99.90;;;;;;4978055;28;20522;-84
2023/07/22 09:35:30;;;;;;;0.10;0.10;;;18.40;99.90;;;;;;4985848;28;20933;-83
2023/07/22 09:37:56;;;;;;;0.00;0.00;;;18.30;99.90;;;;;;4989091;28;20498;-82
2023/07/22 09:40:28;;;;;;;0.00;0.00;;;18.00;99.90;;;;;;4988856;28;20499;-83
2023/07/22 09:42:55;;;;;;;0.00;0.00;;;17.40;99.90;;;;;;4987487;28;20431;-84
2023/07/22 09:45:25;;;;;;;0.00;0.00;;;17.00;99.90;;;;;;4981306;28;20495;-83
2023/07/22 09:47:52;;;;;;;0.00;0.00;;;16.50;99.90;;;;;;4991722;28;20464;-82
2023/07/22 09:50:21;;;;;;;0.00;0.00;;;16.70;99.90;;;;;;4987155;28;20448;-82
2023/07/22 09:52:49;;;;;;;0.00;0.00;;;16.90;99.90;;;;;;4971634;28;20455;-82
2023/07/22 09:55:20;;;;;;;0.00;0.00;;;17.20;99.90;;;;;;4979587;28;20551;-82
2023/07/22 09:57:50;;;;;;;0.00;0.00;;;17.60;99.90;;;;;;4990434;28;20444;-82
2023/07/22 10:00:19;;;;;;;0.00;0.00;;;17.30;99.90;;;;;;4984264;28;20436;-82
2023/07/22 10:02:47;;;;;;;0.00;0.00;;;17.10;99.90;;;;;;4970055;28;20526;-83
2023/07/22 10:05:15;;;;;;;0.00;0.00;;;17.00;99.90;;;;;;4989127;28;20482;-83
2023/07/22 10:07:45;;;;;;;0.00;0.00;;;16.90;99.90;;;;;;4970893;28;21133;-83
2023/07/22 10:10:12;;;;;;;0.00;0.00;;;17.30;99.90;;;;;;4981963;28;21004;-83
2023/07/22 10:12:40;;;;;;;0.00;0.00;;;17.70;99.90;;;;;;4972960;28;20571;-83
2023/07/22 10:15:07;;;;;;;0.00;0.00;;;18.40;99.90;;;;;;4981563;28;20499;-83
2023/07/22 10:17:34;;;;;;;0.00;0.00;;;18.50;99.90;;;;;;4985602;28;20994;-81
2023/07/22 10:19:59;;;;;;;0.00;0.00;;;18.20;99.90;;;;;;4973211;28;20436;-86
2023/07/22 10:22:27;;;;;;;0.00;0.00;;;17.80;99.90;;;;;;4985518;28;20456;-85
2023/07/22 10:24:54;;;;;;;0.00;0.00;;;17.30;99.90;;;;;;4988178;28;20213;-84
2023/07/22 10:27:20;;;;;;;0.00;0.00;;;16.90;99.90;;;;;;4962484;28;20987;-83
2023/07/22 10:29:46;;;;;;;0.00;0.00;;;16.30;99.90;;;;;;4970055;28;20478;-82
2023/07/22 10:32:12;;;;;;;0.00;0.00;;;15.80;99.90;;;;;;4985996;28;20498;-83
2023/07/22 10:34:37;;;;;;;0.00;0.00;;;15.60;99.90;;;;;;4987857;28;20439;-85
2023/07/22 10:37:04;;;;;;;0.00;0.00;;;15.60;99.90;;;;;;4983426;28;20189;-82
2023/07/22 10:39:29;;;;;;;0.00;0.00;;;15.90;99.90;;;;;;4984483;28;20185;-84
2023/07/22 10:42:05;;;;;;;0.00;0.00;;;16.50;99.90;;;;;;4984370;28;20970;-83
2023/07/22 10:44:32;;;;;;;0.00;0.00;;;17.80;99.90;;;;;;4979800;28;20584;-84
2023/07/22 10:46:58;;;;;;;0.00;0.00;;;19.00;99.90;;;;;;4988021;28;21003;-85
2023/07/22 10:49:24;;;;;;;0.00;0.00;;;19.80;99.90;;;;;;4971197;28;20448;-85
2023/07/22 10:51:51;;;;;;;0.00;0.00;;;20.50;99.90;;;;;;4987445;28;20911;-86
2023/07/22 10:54:36;;;;;;;0.00;0.00;;;21.10;99.90;;;;;;4986510;28;20211;-85
2023/07/22 10:57:26;;;;;;;0.00;0.00;;;21.40;99.90;;;;;;4972173;28;20990;-84
2023/07/22 10:59:52;;;;;;;0.00;0.00;;;21.40;99.90;;;;;;4971458;28;20425;-85
2023/07/22 11:02:27;;;;;;;0.00;0.00;;;21.90;99.90;;;;;;4978759;28;20474;-84
2023/07/22 11:04:52;;;;;;;0.00;0.00;;;22.40;99.90;;;;;;4986467;28;20436;-85
2023/07/22 11:07:31;;;;;;;0.00;0.00;;;22.40;99.90;;;;;;4989487;28;20548;-85
2023/07/22 11:09:56;;;;;;;0.00;0.00;;;22.70;99.90;;;;;;4986659;28;20243;-86
2023/07/22 11:12:24;;;;;;;0.00;0.00;;;23.20;99.90;;;;;;4988387;28;20944;-85
2023/07/22 11:14:52;;;;;;;0.00;0.00;;;23.30;99.90;;;;;;4993865;28;20181;-86
2023/07/22 11:17:28;;;;;;;0.00;0.00;;;23.50;99.90;;;;;;4989768;28;20440;-87
2023/07/22 11:19:54;;;;;;;0.00;0.00;;;23.20;99.90;;;;;;4990420;28;20775;-85
2023/07/22 11:22:20;;;;;;;0.00;0.00;;;22.90;99.90;;;;;;4975200;28;20822;-84
2023/07/22 11:24:45;;;;;;;0.00;0.00;;;21.80;99.90;;;;;;4992825;28;20431;-84
2023/07/22 11:27:12;;;;;;;0.00;0.00;;;20.60;99.90;;;;;;4991281;28;20197;-85
2023/07/22 11:29:37;;;;;;;0.00;0.00;;;19.60;99.90;;;;;;4994284;28;20544;-83
2023/07/22 11:32:04;;;;;;;0.00;0.00;;;18.90;99.90;;;;;;4993456;28;20448;-85
2023/07/22 11:34:29;;;;;;;0.00;0.00;;;18.40;99.90;;;;;;4986843;28;20289;-85
2023/07/22 11:36:56;;;;;;;0.00;0.00;;;17.60;99.90;;;;;;4986583;28;20905;-85
2023/07/22 11:39:24;;;;;;;0.00;0.00;;;17.50;99.90;;;;;;4993299;28;20610;-85
2023/07/22 11:41:50;;;;;;;0.00;0.00;;;17.40;99.90;;;;;;4992405;28;20444;-84
2023/07/22 11:44:18;;;;;;;0.00;0.00;;;17.30;99.90;;;;;;4993669;28;20471;-85
2023/07/22 11:47:09;;;;;;;0.00;0.00;;;17.20;99.90;;;;;;4992586;28;20619;-85
2023/07/22 11:49:40;;;;;;;0.00;0.00;;;17.00;99.90;;;;;;4992136;28;20439;-85
2023/07/22 11:52:07;;;;;;;0.00;0.00;;;16.80;99.90;;;;;;4989813;28;20440;-83
2023/07/22 11:54:36;;;;;;;0.00;0.00;;;16.70;99.90;;;;;;4986659;28;20807;-84
2023/07/22 11:57:21;;;;;;;0.00;0.00;;;16.80;99.90;;;;;;4990088;28;20464;-82
2023/07/22 11:59:52;;;;;;;0.00;0.00;;;16.70;99.90;;;;;;4974700;28;20610;-84
2023/07/22 12:02:33;;;;;;;0.00;0.00;;;16.70;99.90;;;;;;4991820;28;20956;-84
2023/07/22 12:05:07;;;;;;;0.00;0.00;;;17.00;99.90;;;;;;4992167;28;20472;-85
2023/07/22 12:07:34;;;;;;;0.00;0.00;;;17.00;99.90;;;;;;4992280;28;20459;-84
2023/07/22 12:10:03;;;;;;;0.00;0.00;;;17.00;99.90;;;;;;4991362;28;20499;-85
2023/07/22 12:12:36;;;;;;;0.00;0.00;;;17.00;99.90;;;;;;4987069;28;20429;-84
2023/07/22 12:15:13;;;;;;;0.00;0.00;;;16.80;99.90;;;;;;4986391;28;20483;-85
2023/07/22 12:18:00;;;;;;;0.00;0.00;;;17.00;99.90;;;;;;4986358;28;20448;-86
2023/07/22 12:20:28;;;;;;;0.00;0.00;;;17.30;99.90;;;;;;4975218;28;20448;-85
2023/07/22 12:22:54;;;;;;;0.00;0.00;;;17.30;99.90;;;;;;4989895;28;20979;-86
2023/07/22 12:25:20;;;;;;;0.00;0.00;;;17.30;99.90;;;;;;4990672;28;20537;-86
2023/07/22 12:27:45;;;;;;;0.00;0.00;;;17.50;99.90;;;;;;4990113;28;20448;-85
2023/07/22 12:30:12;;;;;;;0.00;0.00;;;17.60;99.90;;;;;;4980835;28;20186;-86
2023/07/22 12:32:38;;;;;;;0.00;0.00;;;17.60;99.90;;;;;;4974547;28;21099;-85
2023/07/22 12:35:04;;;;;;;0.00;0.00;;;17.60;99.90;;;;;;4993944;28;20988;-85
2023/07/22 12:37:29;;;;;;;0.00;0.00;;;17.80;99.90;;;;;;4992630;28;20452;-84
2023/07/22 12:39:56;;;;;;;0.00;0.00;;;17.90;99.90;;;;;;4961140;28;20972;-85
2023/07/22 12:42:21;;;;;;;0.00;0.00;;;18.00;99.90;;;;;;4988682;28;20201;-84
2023/07/22 12:44:47;;;;;;;0.00;0.00;;;18.10;99.90;;;;;;4968069;28;20492;-86